sensor_id;sensor_type;location;lat;lon;timestamp;P1;durP1;ratioP1;P2;durP2;ratioP2
16352;SDS011;8286;51.274;9.542;2023-08-17T00:00:30;8.85;;;1.45;;
16352;SDS011;8286;51.274;9.542;2023-08-17T00:02:57;3.35;;;1.30;;
16352;SDS011;8286;51.274;9.542;2023-08-17T00:05:24;1.73;;;1.45;;
16352;SDS011;8286;51.274;9.542;2023-08-17T00:07:51;3.53;;;1.38;;
16352;SDS011;8286;51.274;9.542;2023-08-17T00:10:18;2.58;;;1.30;;
16352;SDS011;8286;51.274;9.542;2023-08-17T00:12:44;2.15;;;1.30;;
16352;SDS011;8286;51.274;9.542;2023-08-17T00:15:11;6.03;;;1.30;;
16352;SDS011;8286;51.274;9.542;2023-08-17T00:17:37;2.75;;;1.38;;
16352;SDS011;8286;51.274;9.542;2023-08-17T00:20:06;2.10;;;1.25;;
16352;SDS011;8286;51.274;9.542;2023-08-17T00:22:34;2.10;;;1.13;;
16352;SDS011;8286;51.274;9.542;2023-08-17T00:25:01;1.50;;;1.02;;
16352;SDS011;8286;51.274;9.542;2023-08-17T00:27:31;1.35;;;1.10;;
16352;SDS011;8286;51.274;9.542;2023-08-17T00:29:58;1.98;;;0.98;;
16352;SDS011;8286;51.274;9.542;2023-08-17T00:32:24;1.45;;;0.98;;
16352;SDS011;8286;51.274;9.542;2023-08-17T00:34:51;2.15;;;1.13;;
16352;SDS011;8286;51.274;9.542;2023-08-17T00:37:19;1.85;;;0.88;;
16352;SDS011;8286;51.274;9.542;2023-08-17T00:39:45;1.40;;;1.00;;
16352;SDS011;8286;51.274;9.542;2023-08-17T00:42:11;1.90;;;0.60;;
16352;SDS011;8286;51.274;9.542;2023-08-17T00:44:38;0.55;;;0.55;;
16352;SDS011;8286;51.274;9.542;2023-08-17T00:47:04;0.90;;;0.77;;
16352;SDS011;8286;51.274;9.542;2023-08-17T00:49:31;1.25;;;0.90;;
16352;SDS011;8286;51.274;9.542;2023-08-17T00:51:57;1.75;;;0.80;;
16352;SDS011;8286;51.274;9.542;2023-08-17T00:54:25;1.27;;;0.70;;
16352;SDS011;8286;51.274;9.542;2023-08-17T00:56:53;1.55;;;0.73;;
16352;SDS011;8286;51.274;9.542;2023-08-17T00:59:20;0.68;;;0.68;;
16352;SDS011;8286;51.274;9.542;2023-08-17T01:01:46;1.00;;;0.90;;
16352;SDS011;8286;51.274;9.542;2023-08-17T01:04:13;3.13;;;0.90;;
16352;SDS011;8286;51.274;9.542;2023-08-17T01:06:40;0.60;;;0.60;;
16352;SDS011;8286;51.274;9.542;2023-08-17T01:09:06;0.60;;;0.60;;
16352;SDS011;8286;51.274;9.542;2023-08-17T01:11:36;1.02;;;0.50;;
16352;SDS011;8286;51.274;9.542;2023-08-17T01:14:05;4.20;;;0.70;;
16352;SDS011;8286;51.274;9.542;2023-08-17T01:16:37;0.68;;;0.63;;
16352;SDS011;8286;51.274;9.542;2023-08-17T01:19:07;1.20;;;0.55;;
16352;SDS011;8286;51.274;9.542;2023-08-17T01:21:35;0.60;;;0.50;;
16352;SDS011;8286;51.274;9.542;2023-08-17T01:24:09;0.50;;;0.50;;
16352;SDS011;8286;51.274;9.542;2023-08-17T01:26:37;2.30;;;0.82;;
16352;SDS011;8286;51.274;9.542;2023-08-17T01:29:03;1.55;;;0.57;;
16352;SDS011;8286;51.274;9.542;2023-08-17T01:31:30;0.45;;;0.45;;
16352;SDS011;8286;51.274;9.542;2023-08-17T01:34:00;2.72;;;0.60;;
16352;SDS011;8286;51.274;9.542;2023-08-17T01:36:30;1.33;;;0.77;;
16352;SDS011;8286;51.274;9.542;2023-08-17T01:38:59;1.35;;;0.40;;
16352;SDS011;8286;51.274;9.542;2023-08-17T01:41:27;0.60;;;0.60;;
16352;SDS011;8286;51.274;9.542;2023-08-17T01:43:54;3.63;;;0.90;;
16352;SDS011;8286;51.274;9.542;2023-08-17T01:46:21;1.67;;;0.60;;
16352;SDS011;8286;51.274;9.542;2023-08-17T01:48:47;0.50;;;0.50;;
16352;SDS011;8286;51.274;9.542;2023-08-17T01:51:16;0.73;;;0.73;;
16352;SDS011;8286;51.274;9.542;2023-08-17T01:53:44;0.52;;;0.52;;
16352;SDS011;8286;51.274;9.542;2023-08-17T01:56:11;0.73;;;0.70;;
16352;SDS011;8286;51.274;9.542;2023-08-17T01:58:39;0.75;;;0.75;;
16352;SDS011;8286;51.274;9.542;2023-08-17T02:01:05;0.70;;;0.70;;
16352;SDS011;8286;51.274;9.542;2023-08-17T02:03:32;1.00;;;0.80;;
16352;SDS011;8286;51.274;9.542;2023-08-17T02:05:58;2.53;;;0.70;;
16352;SDS011;8286;51.274;9.542;2023-08-17T02:08:25;1.08;;;0.55;;
16352;SDS011;8286;51.274;9.542;2023-08-17T02:10:51;1.60;;;0.57;;
16352;SDS011;8286;51.274;9.542;2023-08-17T02:13:18;1.13;;;0.70;;
16352;SDS011;8286;51.274;9.542;2023-08-17T02:15:46;0.63;;;0.63;;
16352;SDS011;8286;51.274;9.542;2023-08-17T02:18:12;0.88;;;0.85;;
16352;SDS011;8286;51.274;9.542;2023-08-17T02:20:39;0.85;;;0.70;;
16352;SDS011;8286;51.274;9.542;2023-08-17T02:23:05;1.83;;;0.80;;
16352;SDS011;8286;51.274;9.542;2023-08-17T02:25:32;1.10;;;1.10;;
16352;SDS011;8286;51.274;9.542;2023-08-17T02:28:00;1.20;;;1.20;;
16352;SDS011;8286;51.274;9.542;2023-08-17T02:30:27;2.83;;;1.10;;
16352;SDS011;8286;51.274;9.542;2023-08-17T02:32:54;4.22;;;1.08;;
16352;SDS011;8286;51.274;9.542;2023-08-17T02:35:21;1.83;;;1.20;;
16352;SDS011;8286;51.274;9.542;2023-08-17T02:37:48;1.55;;;1.02;;
16352;SDS011;8286;51.274;9.542;2023-08-17T02:40:15;2.15;;;1.15;;
16352;SDS011;8286;51.274;9.542;2023-08-17T02:42:41;2.92;;;1.40;;
16352;SDS011;8286;51.274;9.542;2023-08-17T02:45:08;3.33;;;1.33;;
16352;SDS011;8286;51.274;9.542;2023-08-17T02:47:35;2.38;;;1.38;;
16352;SDS011;8286;51.274;9.542;2023-08-17T02:50:03;2.08;;;1.15;;
16352;SDS011;8286;51.274;9.542;2023-08-17T02:52:30;1.63;;;1.52;;
16352;SDS011;8286;51.274;9.542;2023-08-17T02:54:57;1.60;;;1.20;;
16352;SDS011;8286;51.274;9.542;2023-08-17T02:57:23;3.95;;;1.38;;
16352;SDS011;8286;51.274;9.542;2023-08-17T02:59:50;2.03;;;1.42;;
16352;SDS011;8286;51.274;9.542;2023-08-17T03:02:16;1.20;;;1.20;;
16352;SDS011;8286;51.274;9.542;2023-08-17T03:04:43;7.28;;;1.60;;
16352;SDS011;8286;51.274;9.542;2023-08-17T03:07:11;2.75;;;1.02;;
16352;SDS011;8286;51.274;9.542;2023-08-17T03:09:37;1.40;;;1.27;;
16352;SDS011;8286;51.274;9.542;2023-08-17T03:12:04;2.00;;;1.60;;
16352;SDS011;8286;51.274;9.542;2023-08-17T03:14:31;1.30;;;1.20;;
16352;SDS011;8286;51.274;9.542;2023-08-17T03:16:57;3.55;;;1.25;;
16352;SDS011;8286;51.274;9.542;2023-08-17T03:19:23;1.67;;;1.30;;
16352;SDS011;8286;51.274;9.542;2023-08-17T03:21:50;2.10;;;1.35;;
16352;SDS011;8286;51.274;9.542;2023-08-17T03:24:18;1.45;;;1.10;;
16352;SDS011;8286;51.274;9.542;2023-08-17T03:26:44;3.50;;;1.38;;
16352;SDS011;8286;51.274;9.542;2023-08-17T03:29:11;1.38;;;1.27;;
16352;SDS011;8286;51.274;9.542;2023-08-17T03:31:37;1.70;;;1.17;;
16352;SDS011;8286;51.274;9.542;2023-08-17T03:34:04;4.45;;;1.50;;
16352;SDS011;8286;51.274;9.542;2023-08-17T03:36:30;1.67;;;1.20;;
16352;SDS011;8286;51.274;9.542;2023-08-17T03:38:57;4.38;;;1.30;;
16352;SDS011;8286;51.274;9.542;2023-08-17T03:41:24;1.52;;;1.30;;
16352;SDS011;8286;51.274;9.542;2023-08-17T03:43:51;1.50;;;1.40;;
16352;SDS011;8286;51.274;9.542;2023-08-17T03:46:17;3.15;;;1.40;;
16352;SDS011;8286;51.274;9.542;2023-08-17T03:48:44;4.30;;;1.70;;
16352;SDS011;8286;51.274;9.542;2023-08-17T03:51:10;1.77;;;1.50;;
16352;SDS011;8286;51.274;9.542;2023-08-17T03:53:37;1.83;;;1.73;;
16352;SDS011;8286;51.274;9.542;2023-08-17T03:56:03;1.92;;;1.80;;
16352;SDS011;8286;51.274;9.542;2023-08-17T03:58:31;2.17;;;1.92;;
16352;SDS011;8286;51.274;9.542;2023-08-17T04:00:59;2.03;;;1.85;;
16352;SDS011;8286;51.274;9.542;2023-08-17T04:03:26;3.80;;;1.85;;
16352;SDS011;8286;51.274;9.542;2023-08-17T04:05:52;1.65;;;1.55;;
16352;SDS011;8286;51.274;9.542;2023-08-17T04:08:18;5.43;;;1.77;;
16352;SDS011;8286;51.274;9.542;2023-08-17T04:10:45;1.63;;;1.50;;
16352;SDS011;8286;51.274;9.542;2023-08-17T04:13:11;5.28;;;2.30;;
16352;SDS011;8286;51.274;9.542;2023-08-17T04:15:39;2.00;;;1.90;;
16352;SDS011;8286;51.274;9.542;2023-08-17T04:18:06;5.35;;;2.30;;
16352;SDS011;8286;51.274;9.542;2023-08-17T04:20:32;5.22;;;2.10;;
16352;SDS011;8286;51.274;9.542;2023-08-17T04:22:58;3.00;;;2.10;;
16352;SDS011;8286;51.274;9.542;2023-08-17T04:25:25;3.10;;;1.83;;
16352;SDS011;8286;51.274;9.542;2023-08-17T04:27:52;3.22;;;2.05;;
16352;SDS011;8286;51.274;9.542;2023-08-17T04:30:19;5.75;;;1.70;;
16352;SDS011;8286;51.274;9.542;2023-08-17T04:32:47;3.03;;;2.00;;
16352;SDS011;8286;51.274;9.542;2023-08-17T04:35:17;3.13;;;1.90;;
16352;SDS011;8286;51.274;9.542;2023-08-17T04:37:44;1.77;;;1.67;;
16352;SDS011;8286;51.274;9.542;2023-08-17T04:40:12;2.08;;;1.80;;
16352;SDS011;8286;51.274;9.542;2023-08-17T04:42:38;3.70;;;1.70;;
16352;SDS011;8286;51.274;9.542;2023-08-17T04:45:05;1.90;;;1.70;;
16352;SDS011;8286;51.274;9.542;2023-08-17T04:47:32;3.33;;;1.90;;
16352;SDS011;8286;51.274;9.542;2023-08-17T04:50:00;3.58;;;2.28;;
16352;SDS011;8286;51.274;9.542;2023-08-17T04:52:27;2.30;;;1.90;;
16352;SDS011;8286;51.274;9.542;2023-08-17T04:54:53;2.70;;;2.10;;
16352;SDS011;8286;51.274;9.542;2023-08-17T04:57:20;1.98;;;1.83;;
16352;SDS011;8286;51.274;9.542;2023-08-17T04:59:46;2.08;;;1.88;;
16352;SDS011;8286;51.274;9.542;2023-08-17T05:02:13;2.13;;;1.90;;
16352;SDS011;8286;51.274;9.542;2023-08-17T05:04:39;2.03;;;1.80;;
16352;SDS011;8286;51.274;9.542;2023-08-17T05:07:08;2.28;;;1.70;;
16352;SDS011;8286;51.274;9.542;2023-08-17T05:09:34;2.72;;;1.88;;
16352;SDS011;8286;51.274;9.542;2023-08-17T05:12:01;2.50;;;1.70;;
16352;SDS011;8286;51.274;9.542;2023-08-17T05:14:27;1.77;;;1.48;;
16352;SDS011;8286;51.274;9.542;2023-08-17T05:16:54;2.30;;;1.60;;
16352;SDS011;8286;51.274;9.542;2023-08-17T05:19:20;2.58;;;1.92;;
16352;SDS011;8286;51.274;9.542;2023-08-17T05:21:46;1.70;;;1.60;;
16352;SDS011;8286;51.274;9.542;2023-08-17T05:24:16;2.47;;;1.80;;
16352;SDS011;8286;51.274;9.542;2023-08-17T05:26:45;1.90;;;1.80;;
16352;SDS011;8286;51.274;9.542;2023-08-17T05:29:12;3.40;;;2.30;;
16352;SDS011;8286;51.274;9.542;2023-08-17T05:31:38;3.25;;;2.25;;
16352;SDS011;8286;51.274;9.542;2023-08-17T05:34:04;3.75;;;2.08;;
16352;SDS011;8286;51.274;9.542;2023-08-17T05:36:31;4.57;;;2.30;;
16352;SDS011;8286;51.274;9.542;2023-08-17T05:38:57;2.17;;;2.08;;
16352;SDS011;8286;51.274;9.542;2023-08-17T05:41:26;3.50;;;2.83;;
16352;SDS011;8286;51.274;9.542;2023-08-17T05:43:52;4.15;;;2.42;;
16352;SDS011;8286;51.274;9.542;2023-08-17T05:46:18;6.57;;;2.80;;
16352;SDS011;8286;51.274;9.542;2023-08-17T05:48:45;4.03;;;2.70;;
16352;SDS011;8286;51.274;9.542;2023-08-17T05:51:11;4.40;;;2.72;;
16352;SDS011;8286;51.274;9.542;2023-08-17T05:53:38;4.10;;;3.03;;
16352;SDS011;8286;51.274;9.542;2023-08-17T05:56:04;2.83;;;2.63;;
16352;SDS011;8286;51.274;9.542;2023-08-17T05:58:32;4.65;;;2.58;;
16352;SDS011;8286;51.274;9.542;2023-08-17T06:01:03;3.83;;;3.42;;
16352;SDS011;8286;51.274;9.542;2023-08-17T06:03:31;5.70;;;3.47;;
16352;SDS011;8286;51.274;9.542;2023-08-17T06:05:57;5.15;;;3.95;;
16352;SDS011;8286;51.274;9.542;2023-08-17T06:08:24;6.95;;;3.42;;
16352;SDS011;8286;51.274;9.542;2023-08-17T06:10:50;6.60;;;3.15;;
16352;SDS011;8286;51.274;9.542;2023-08-17T06:13:17;6.82;;;3.50;;
16352;SDS011;8286;51.274;9.542;2023-08-17T06:15:45;4.43;;;3.22;;
16352;SDS011;8286;51.274;9.542;2023-08-17T06:18:11;3.17;;;2.88;;
16352;SDS011;8286;51.274;9.542;2023-08-17T06:20:38;4.90;;;3.20;;
16352;SDS011;8286;51.274;9.542;2023-08-17T06:23:04;4.78;;;3.40;;
16352;SDS011;8286;51.274;9.542;2023-08-17T06:25:31;6.63;;;3.70;;
16352;SDS011;8286;51.274;9.542;2023-08-17T06:27:57;4.00;;;3.60;;
16352;SDS011;8286;51.274;9.542;2023-08-17T06:30:23;7.68;;;4.40;;
16352;SDS011;8286;51.274;9.542;2023-08-17T06:32:51;7.38;;;5.05;;
16352;SDS011;8286;51.274;9.542;2023-08-17T06:35:18;7.70;;;5.20;;
16352;SDS011;8286;51.274;9.542;2023-08-17T06:37:44;7.30;;;4.93;;
16352;SDS011;8286;51.274;9.542;2023-08-17T06:40:11;6.75;;;4.30;;
16352;SDS011;8286;51.274;9.542;2023-08-17T06:42:37;9.63;;;5.13;;
16352;SDS011;8286;51.274;9.542;2023-08-17T06:45:04;12.52;;;6.03;;
16352;SDS011;8286;51.274;9.542;2023-08-17T06:47:32;10.18;;;7.50;;
16352;SDS011;8286;51.274;9.542;2023-08-17T06:50:00;14.30;;;9.10;;
16352;SDS011;8286;51.274;9.542;2023-08-17T06:52:26;14.30;;;9.77;;
16352;SDS011;8286;51.274;9.542;2023-08-17T06:54:53;19.42;;;11.95;;
16352;SDS011;8286;51.274;9.542;2023-08-17T06:57:19;19.83;;;12.68;;
16352;SDS011;8286;51.274;9.542;2023-08-17T06:59:46;17.25;;;11.63;;
16352;SDS011;8286;51.274;9.542;2023-08-17T07:02:13;22.83;;;12.30;;
16352;SDS011;8286;51.274;9.542;2023-08-17T07:04:39;17.33;;;12.00;;
16352;SDS011;8286;51.274;9.542;2023-08-17T07:07:07;25.67;;;12.90;;
16352;SDS011;8286;51.274;9.542;2023-08-17T07:09:34;20.45;;;13.70;;
16352;SDS011;8286;51.274;9.542;2023-08-17T07:12:00;21.77;;;12.35;;
16352;SDS011;8286;51.274;9.542;2023-08-17T07:14:27;17.70;;;11.77;;
16352;SDS011;8286;51.274;9.542;2023-08-17T07:16:53;14.50;;;10.35;;
16352;SDS011;8286;51.274;9.542;2023-08-17T07:19:19;15.10;;;9.82;;
16352;SDS011;8286;51.274;9.542;2023-08-17T07:21:46;14.27;;;9.35;;
16352;SDS011;8286;51.274;9.542;2023-08-17T07:24:14;13.52;;;10.30;;
16352;SDS011;8286;51.274;9.542;2023-08-17T07:26:42;17.05;;;8.55;;
16352;SDS011;8286;51.274;9.542;2023-08-17T07:29:09;20.10;;;9.38;;
16352;SDS011;8286;51.274;9.542;2023-08-17T07:31:36;13.15;;;8.35;;
16352;SDS011;8286;51.274;9.542;2023-08-17T07:34:03;11.45;;;7.28;;
16352;SDS011;8286;51.274;9.542;2023-08-17T07:36:29;13.68;;;9.38;;
16352;SDS011;8286;51.274;9.542;2023-08-17T07:38:56;17.73;;;10.15;;
16352;SDS011;8286;51.274;9.542;2023-08-17T07:41:24;15.68;;;11.07;;
16352;SDS011;8286;51.274;9.542;2023-08-17T07:43:50;15.30;;;9.20;;
16352;SDS011;8286;51.274;9.542;2023-08-17T07:46:17;17.50;;;11.40;;
16352;SDS011;8286;51.274;9.542;2023-08-17T07:48:43;16.75;;;10.82;;
16352;SDS011;8286;51.274;9.542;2023-08-17T07:51:10;18.70;;;11.20;;
16352;SDS011;8286;51.274;9.542;2023-08-17T07:53:36;17.55;;;11.30;;
16352;SDS011;8286;51.274;9.542;2023-08-17T07:56:03;16.15;;;11.27;;
16352;SDS011;8286;51.274;9.542;2023-08-17T07:58:31;15.98;;;10.57;;
16352;SDS011;8286;51.274;9.542;2023-08-17T08:00:57;15.25;;;11.27;;
16352;SDS011;8286;51.274;9.542;2023-08-17T08:03:24;19.35;;;11.13;;
16352;SDS011;8286;51.274;9.542;2023-08-17T08:05:50;13.60;;;10.52;;
16352;SDS011;8286;51.274;9.542;2023-08-17T08:08:17;18.20;;;10.43;;
16352;SDS011;8286;51.274;9.542;2023-08-17T08:10:45;13.15;;;9.60;;
16352;SDS011;8286;51.274;9.542;2023-08-17T08:13:11;17.13;;;10.25;;
16352;SDS011;8286;51.274;9.542;2023-08-17T08:15:40;15.95;;;9.70;;
16352;SDS011;8286;51.274;9.542;2023-08-17T08:18:06;14.38;;;8.93;;
16352;SDS011;8286;51.274;9.542;2023-08-17T08:20:32;17.40;;;9.70;;
16352;SDS011;8286;51.274;9.542;2023-08-17T08:22:59;12.82;;;8.48;;
16352;SDS011;8286;51.274;9.542;2023-08-17T08:25:25;18.77;;;10.38;;
16352;SDS011;8286;51.274;9.542;2023-08-17T08:27:52;14.43;;;8.65;;
16352;SDS011;8286;51.274;9.542;2023-08-17T08:30:18;12.88;;;9.65;;
16352;SDS011;8286;51.274;9.542;2023-08-17T08:32:46;27.55;;;14.13;;
16352;SDS011;8286;51.274;9.542;2023-08-17T08:35:13;14.25;;;9.70;;
16352;SDS011;8286;51.274;9.542;2023-08-17T08:37:39;16.33;;;10.63;;
16352;SDS011;8286;51.274;9.542;2023-08-17T08:40:06;15.45;;;9.43;;
16352;SDS011;8286;51.274;9.542;2023-08-17T08:42:37;10.93;;;8.43;;
16352;SDS011;8286;51.274;9.542;2023-08-17T08:45:04;16.17;;;9.68;;
16352;SDS011;8286;51.274;9.542;2023-08-17T08:47:31;13.45;;;9.02;;
16352;SDS011;8286;51.274;9.542;2023-08-17T08:50:01;15.35;;;9.35;;
16352;SDS011;8286;51.274;9.542;2023-08-17T08:52:32;11.90;;;8.32;;
16352;SDS011;8286;51.274;9.542;2023-08-17T08:55:00;12.07;;;8.63;;
16352;SDS011;8286;51.274;9.542;2023-08-17T08:57:32;10.68;;;8.15;;
16352;SDS011;8286;51.274;9.542;2023-08-17T08:59:59;9.40;;;7.68;;
16352;SDS011;8286;51.274;9.542;2023-08-17T09:02:25;11.32;;;6.82;;
16352;SDS011;8286;51.274;9.542;2023-08-17T09:04:52;9.85;;;7.65;;
16352;SDS011;8286;51.274;9.542;2023-08-17T09:07:19;8.40;;;6.75;;
16352;SDS011;8286;51.274;9.542;2023-08-17T09:09:48;13.35;;;6.70;;
16352;SDS011;8286;51.274;9.542;2023-08-17T09:12:14;10.20;;;7.47;;
16352;SDS011;8286;51.274;9.542;2023-08-17T09:14:41;9.00;;;6.20;;
16352;SDS011;8286;51.274;9.542;2023-08-17T09:17:07;6.93;;;6.22;;
16352;SDS011;8286;51.274;9.542;2023-08-17T09:19:34;6.78;;;6.13;;
16352;SDS011;8286;51.274;9.542;2023-08-17T09:22:00;7.72;;;5.80;;
16352;SDS011;8286;51.274;9.542;2023-08-17T09:24:34;9.15;;;5.63;;
16352;SDS011;8286;51.274;9.542;2023-08-17T09:27:01;7.05;;;4.97;;
16352;SDS011;8286;51.274;9.542;2023-08-17T09:29:28;7.85;;;4.93;;
16352;SDS011;8286;51.274;9.542;2023-08-17T09:31:58;9.20;;;4.70;;
16352;SDS011;8286;51.274;9.542;2023-08-17T09:34:24;8.02;;;4.22;;
16352;SDS011;8286;51.274;9.542;2023-08-17T09:36:51;8.88;;;5.22;;
16352;SDS011;8286;51.274;9.542;2023-08-17T09:39:17;5.40;;;4.47;;
16352;SDS011;8286;51.274;9.542;2023-08-17T09:41:45;7.78;;;5.05;;
16352;SDS011;8286;51.274;9.542;2023-08-17T09:44:12;8.20;;;4.88;;
16352;SDS011;8286;51.274;9.542;2023-08-17T09:46:39;8.48;;;5.50;;
16352;SDS011;8286;51.274;9.542;2023-08-17T09:49:08;8.50;;;5.18;;
16352;SDS011;8286;51.274;9.542;2023-08-17T09:51:34;6.78;;;5.22;;
16352;SDS011;8286;51.274;9.542;2023-08-17T09:54:01;7.25;;;5.60;;
16352;SDS011;8286;51.274;9.542;2023-08-17T09:56:27;7.47;;;5.85;;
16352;SDS011;8286;51.274;9.542;2023-08-17T09:58:55;9.38;;;5.45;;
16352;SDS011;8286;51.274;9.542;2023-08-17T10:01:22;9.23;;;5.78;;
16352;SDS011;8286;51.274;9.542;2023-08-17T10:03:49;7.93;;;5.90;;
16352;SDS011;8286;51.274;9.542;2023-08-17T10:06:18;6.25;;;5.28;;
16352;SDS011;8286;51.274;9.542;2023-08-17T10:08:47;6.82;;;4.90;;
16352;SDS011;8286;51.274;9.542;2023-08-17T10:11:14;8.80;;;5.20;;
16352;SDS011;8286;51.274;9.542;2023-08-17T10:13:44;7.80;;;5.65;;
16352;SDS011;8286;51.274;9.542;2023-08-17T10:16:16;7.70;;;5.65;;
16352;SDS011;8286;51.274;9.542;2023-08-17T10:18:50;5.50;;;4.90;;
16352;SDS011;8286;51.274;9.542;2023-08-17T10:21:21;6.28;;;4.55;;
16352;SDS011;8286;51.274;9.542;2023-08-17T10:23:49;6.22;;;4.35;;
16352;SDS011;8286;51.274;9.542;2023-08-17T10:26:16;5.22;;;4.10;;
16352;SDS011;8286;51.274;9.542;2023-08-17T10:28:43;5.57;;;4.50;;
16352;SDS011;8286;51.274;9.542;2023-08-17T10:31:10;5.00;;;4.57;;
16352;SDS011;8286;51.274;9.542;2023-08-17T10:33:38;4.88;;;4.45;;
16352;SDS011;8286;51.274;9.542;2023-08-17T10:36:07;5.03;;;3.88;;
16352;SDS011;8286;51.274;9.542;2023-08-17T10:38:34;5.05;;;4.10;;
16352;SDS011;8286;51.274;9.542;2023-08-17T10:41:07;5.82;;;4.25;;
16352;SDS011;8286;51.274;9.542;2023-08-17T10:43:34;4.72;;;4.10;;
16352;SDS011;8286;51.274;9.542;2023-08-17T10:46:14;4.25;;;3.85;;
16352;SDS011;8286;51.274;9.542;2023-08-17T10:48:44;3.97;;;3.60;;
16352;SDS011;8286;51.274;9.542;2023-08-17T10:51:10;4.10;;;3.70;;
16352;SDS011;8286;51.274;9.542;2023-08-17T10:53:38;4.47;;;4.05;;
16352;SDS011;8286;51.274;9.542;2023-08-17T10:56:08;3.33;;;3.10;;
16352;SDS011;8286;51.274;9.542;2023-08-17T10:58:37;4.53;;;3.70;;
16352;SDS011;8286;51.274;9.542;2023-08-17T11:01:03;3.90;;;3.45;;
16352;SDS011;8286;51.274;9.542;2023-08-17T11:03:30;4.00;;;3.05;;
16352;SDS011;8286;51.274;9.542;2023-08-17T11:06:13;3.70;;;3.40;;
16352;SDS011;8286;51.274;9.542;2023-08-17T11:08:50;3.22;;;3.03;;
16352;SDS011;8286;51.274;9.542;2023-08-17T11:11:19;3.65;;;3.45;;
16352;SDS011;8286;51.274;9.542;2023-08-17T11:13:46;3.90;;;3.38;;
16352;SDS011;8286;51.274;9.542;2023-08-17T11:16:14;3.95;;;3.58;;
16352;SDS011;8286;51.274;9.542;2023-08-17T11:18:44;5.03;;;4.07;;
16352;SDS011;8286;51.274;9.542;2023-08-17T11:21:12;4.88;;;3.85;;
16352;SDS011;8286;51.274;9.542;2023-08-17T11:23:40;3.75;;;3.00;;
16352;SDS011;8286;51.274;9.542;2023-08-17T11:26:07;3.58;;;3.25;;
16352;SDS011;8286;51.274;9.542;2023-08-17T11:28:34;3.38;;;3.17;;
16352;SDS011;8286;51.274;9.542;2023-08-17T11:31:04;3.30;;;2.95;;
16352;SDS011;8286;51.274;9.542;2023-08-17T11:33:31;3.45;;;3.17;;
16352;SDS011;8286;51.274;9.542;2023-08-17T11:35:58;2.97;;;2.75;;
16352;SDS011;8286;51.274;9.542;2023-08-17T11:38:32;3.20;;;2.90;;
16352;SDS011;8286;51.274;9.542;2023-08-17T11:40:58;3.03;;;2.78;;
16352;SDS011;8286;51.274;9.542;2023-08-17T11:43:25;3.08;;;2.88;;
16352;SDS011;8286;51.274;9.542;2023-08-17T11:45:54;4.30;;;2.33;;
16352;SDS011;8286;51.274;9.542;2023-08-17T11:48:20;2.50;;;2.40;;
16352;SDS011;8286;51.274;9.542;2023-08-17T11:50:47;4.10;;;1.90;;
16352;SDS011;8286;51.274;9.542;2023-08-17T11:53:14;2.50;;;2.30;;
16352;SDS011;8286;51.274;9.542;2023-08-17T11:55:42;2.42;;;2.10;;
16352;SDS011;8286;51.274;9.542;2023-08-17T11:58:08;2.20;;;2.08;;
16352;SDS011;8286;51.274;9.542;2023-08-17T12:00:35;2.70;;;2.50;;
16352;SDS011;8286;51.274;9.542;2023-08-17T12:03:02;2.10;;;2.00;;
16352;SDS011;8286;51.274;9.542;2023-08-17T12:05:30;4.95;;;2.08;;
16352;SDS011;8286;51.274;9.542;2023-08-17T12:07:57;2.33;;;2.22;;
16352;SDS011;8286;51.274;9.542;2023-08-17T12:10:27;2.30;;;2.10;;
16352;SDS011;8286;51.274;9.542;2023-08-17T12:12:56;3.63;;;3.33;;
16352;SDS011;8286;51.274;9.542;2023-08-17T12:15:23;2.60;;;2.40;;
16352;SDS011;8286;51.274;9.542;2023-08-17T12:17:51;3.13;;;2.92;;
16352;SDS011;8286;51.274;9.542;2023-08-17T12:20:18;4.07;;;2.20;;
16352;SDS011;8286;51.274;9.542;2023-08-17T12:22:45;2.42;;;2.20;;
16352;SDS011;8286;51.274;9.542;2023-08-17T12:25:12;4.22;;;2.45;;
16352;SDS011;8286;51.274;9.542;2023-08-17T12:27:39;3.10;;;2.40;;
16352;SDS011;8286;51.274;9.542;2023-08-17T12:30:13;3.15;;;2.25;;
16352;SDS011;8286;51.274;9.542;2023-08-17T12:32:40;4.70;;;2.25;;
16352;SDS011;8286;51.274;9.542;2023-08-17T12:35:07;4.00;;;2.45;;
16352;SDS011;8286;51.274;9.542;2023-08-17T12:37:34;2.58;;;2.42;;
16352;SDS011;8286;51.274;9.542;2023-08-17T12:40:00;2.47;;;2.28;;
16352;SDS011;8286;51.274;9.542;2023-08-17T12:42:27;2.38;;;2.28;;
16352;SDS011;8286;51.274;9.542;2023-08-17T12:44:53;2.58;;;2.40;;
16352;SDS011;8286;51.274;9.542;2023-08-17T12:47:21;2.42;;;2.33;;
16352;SDS011;8286;51.274;9.542;2023-08-17T12:49:48;3.10;;;2.80;;
16352;SDS011;8286;51.274;9.542;2023-08-17T12:52:14;2.53;;;2.38;;
16352;SDS011;8286;51.274;9.542;2023-08-17T12:54:41;4.20;;;2.35;;
16352;SDS011;8286;51.274;9.542;2023-08-17T12:57:07;3.55;;;2.22;;
16352;SDS011;8286;51.274;9.542;2023-08-17T12:59:33;2.60;;;2.38;;
16352;SDS011;8286;51.274;9.542;2023-08-17T13:02:00;5.57;;;2.58;;
16352;SDS011;8286;51.274;9.542;2023-08-17T13:04:28;4.30;;;2.40;;
16352;SDS011;8286;51.274;9.542;2023-08-17T13:06:54;2.40;;;2.30;;
16352;SDS011;8286;51.274;9.542;2023-08-17T13:09:21;2.53;;;2.33;;
16352;SDS011;8286;51.274;9.542;2023-08-17T13:11:47;3.20;;;2.40;;
16352;SDS011;8286;51.274;9.542;2023-08-17T13:14:13;2.30;;;2.20;;
16352;SDS011;8286;51.274;9.542;2023-08-17T13:16:40;5.85;;;2.40;;
16352;SDS011;8286;51.274;9.542;2023-08-17T13:19:06;2.72;;;2.53;;
16352;SDS011;8286;51.274;9.542;2023-08-17T13:21:34;2.25;;;2.13;;
16352;SDS011;8286;51.274;9.542;2023-08-17T13:24:01;2.63;;;2.42;;
16352;SDS011;8286;51.274;9.542;2023-08-17T13:26:28;3.35;;;2.20;;
16352;SDS011;8286;51.274;9.542;2023-08-17T13:28:55;2.45;;;2.33;;
16352;SDS011;8286;51.274;9.542;2023-08-17T13:31:21;2.60;;;2.40;;
16352;SDS011;8286;51.274;9.542;2023-08-17T13:33:48;4.50;;;2.60;;
16352;SDS011;8286;51.274;9.542;2023-08-17T13:36:14;2.58;;;2.38;;
16352;SDS011;8286;51.274;9.542;2023-08-17T13:38:42;3.20;;;2.45;;
16352;SDS011;8286;51.274;9.542;2023-08-17T13:41:10;2.10;;;2.00;;
16352;SDS011;8286;51.274;9.542;2023-08-17T13:43:37;2.13;;;2.03;;
16352;SDS011;8286;51.274;9.542;2023-08-17T13:46:03;2.40;;;2.22;;
16352;SDS011;8286;51.274;9.542;2023-08-17T13:48:30;2.35;;;2.15;;
16352;SDS011;8286;51.274;9.542;2023-08-17T13:50:56;2.30;;;2.20;;
16352;SDS011;8286;51.274;9.542;2023-08-17T13:53:23;2.40;;;2.30;;
16352;SDS011;8286;51.274;9.542;2023-08-17T13:55:51;2.13;;;2.03;;
16352;SDS011;8286;51.274;9.542;2023-08-17T13:58:17;2.20;;;2.10;;
16352;SDS011;8286;51.274;9.542;2023-08-17T14:00:44;2.45;;;2.35;;
16352;SDS011;8286;51.274;9.542;2023-08-17T14:03:10;2.47;;;2.28;;
16352;SDS011;8286;51.274;9.542;2023-08-17T14:05:36;2.58;;;2.38;;
16352;SDS011;8286;51.274;9.542;2023-08-17T14:08:03;2.30;;;2.20;;
16352;SDS011;8286;51.274;9.542;2023-08-17T14:10:31;2.15;;;2.05;;
16352;SDS011;8286;51.274;9.542;2023-08-17T14:12:59;2.42;;;2.22;;
16352;SDS011;8286;51.274;9.542;2023-08-17T14:15:26;2.67;;;2.22;;
16352;SDS011;8286;51.274;9.542;2023-08-17T14:17:52;2.33;;;2.22;;
16352;SDS011;8286;51.274;9.542;2023-08-17T14:20:19;2.90;;;2.30;;
16352;SDS011;8286;51.274;9.542;2023-08-17T14:22:45;2.58;;;2.47;;
16352;SDS011;8286;51.274;9.542;2023-08-17T14:25:13;2.25;;;2.15;;
16352;SDS011;8286;51.274;9.542;2023-08-17T14:27:40;2.83;;;2.10;;
16352;SDS011;8286;51.274;9.542;2023-08-17T14:30:09;2.40;;;2.30;;
16352;SDS011;8286;51.274;9.542;2023-08-17T14:32:35;2.25;;;2.15;;
16352;SDS011;8286;51.274;9.542;2023-08-17T14:35:02;2.70;;;2.20;;
16352;SDS011;8286;51.274;9.542;2023-08-17T14:37:29;5.65;;;2.03;;
16352;SDS011;8286;51.274;9.542;2023-08-17T14:39:55;2.40;;;2.20;;
16352;SDS011;8286;51.274;9.542;2023-08-17T14:42:22;2.60;;;2.40;;
16352;SDS011;8286;51.274;9.542;2023-08-17T14:44:49;1.65;;;1.60;;
16352;SDS011;8286;51.274;9.542;2023-08-17T14:47:16;3.15;;;1.92;;
16352;SDS011;8286;51.274;9.542;2023-08-17T14:49:43;2.13;;;2.00;;
16352;SDS011;8286;51.274;9.542;2023-08-17T14:52:09;2.28;;;2.08;;
16352;SDS011;8286;51.274;9.542;2023-08-17T14:54:36;1.98;;;1.88;;
16352;SDS011;8286;51.274;9.542;2023-08-17T14:57:03;1.80;;;1.70;;